createdAt,value
2023-06-01T00:00:57.161Z,6.45
2023-06-01T00:03:24.352Z,6.45
2023-06-01T00:05:51.166Z,6.60
2023-06-01T00:08:17.783Z,6.63
2023-06-01T00:10:44.356Z,7.00
2023-06-01T00:13:11.033Z,6.43
2023-06-01T00:15:37.682Z,6.28
2023-06-01T00:18:04.340Z,6.07
2023-06-01T00:20:33.189Z,6.13
2023-06-01T00:23:03.633Z,6.13
2023-06-01T00:25:30.442Z,6.18
2023-06-01T00:27:57.353Z,6.25
2023-06-01T00:30:24.104Z,6.20
2023-06-01T00:32:51.098Z,6.63
2023-06-01T00:35:17.901Z,5.70
2023-06-01T00:37:44.534Z,6.07
2023-06-01T00:40:11.661Z,5.80
2023-06-01T00:42:38.273Z,5.88
2023-06-01T00:45:06.297Z,5.60
2023-06-01T00:47:41.579Z,5.00
2023-06-01T00:50:09.757Z,5.75
2023-06-01T00:52:38.581Z,5.57
2023-06-01T00:55:06.629Z,5.55
2023-06-01T00:57:35.671Z,5.70
2023-06-01T01:00:11.939Z,5.70
2023-06-01T01:02:45.584Z,5.78
2023-06-01T01:05:12.525Z,5.40
2023-06-01T01:07:45.139Z,5.78
2023-06-01T01:10:27.702Z,5.32
2023-06-01T01:13:07.910Z,4.90
2023-06-01T01:15:54.682Z,4.95
2023-06-01T01:18:33.644Z,5.07
2023-06-01T01:21:04.458Z,4.97
2023-06-01T01:23:55.786Z,5.22
2023-06-01T01:26:44.378Z,5.25
2023-06-01T01:29:15.136Z,4.70
2023-06-01T01:31:42.492Z,5.25
2023-06-01T01:34:10.188Z,5.20
2023-06-01T01:36:37.399Z,4.90
2023-06-01T01:39:04.413Z,4.88
2023-06-01T01:41:30.986Z,4.97
2023-06-01T01:44:00.300Z,5.03
2023-06-01T01:46:29.605Z,4.78
2023-06-01T01:49:08.205Z,4.93
2023-06-01T01:51:46.101Z,4.40
2023-06-01T01:54:14.175Z,4.32
2023-06-01T01:56:41.314Z,4.18
2023-06-01T01:59:08.464Z,4.75
2023-06-01T02:01:36.134Z,4.90
2023-06-01T02:04:04.991Z,4.55
2023-06-01T02:06:31.811Z,4.78
2023-06-01T02:08:58.575Z,4.93
2023-06-01T02:11:25.979Z,4.97
2023-06-01T02:13:52.792Z,4.05
2023-06-01T02:16:19.451Z,4.47
2023-06-01T02:18:46.988Z,3.92
2023-06-01T02:21:14.658Z,3.78
2023-06-01T02:23:43.150Z,4.35
2023-06-01T02:26:10.703Z,4.10
2023-06-01T02:28:41.799Z,4.20
2023-06-01T02:31:08.426Z,4.35
2023-06-01T02:33:35.103Z,4.30
2023-06-01T02:36:02.626Z,3.70
2023-06-01T02:38:29.168Z,3.75
2023-06-01T02:40:55.897Z,3.75
2023-06-01T02:43:22.444Z,4.13
2023-06-01T02:45:49.161Z,4.03
2023-06-01T02:48:15.786Z,3.50
2023-06-01T02:50:42.391Z,4.20
2023-06-01T02:53:09.014Z,3.35
2023-06-01T02:55:35.739Z,3.75
2023-06-01T02:58:02.323Z,3.55
2023-06-01T03:00:29.113Z,3.30
2023-06-01T03:02:55.763Z,3.92
2023-06-01T03:05:22.414Z,3.75
2023-06-01T03:07:49.340Z,3.40
2023-06-01T03:10:16.340Z,3.63
2023-06-01T03:12:42.983Z,3.58
2023-06-01T03:15:09.949Z,3.47
2023-06-01T03:17:36.747Z,3.45
2023-06-01T03:20:03.993Z,3.22
2023-06-01T03:22:30.789Z,3.80
2023-06-01T03:24:58.848Z,3.30
2023-06-01T03:27:25.427Z,3.58
2023-06-01T03:29:52.012Z,3.38
2023-06-01T03:32:18.604Z,3.25
2023-06-01T03:34:46.003Z,3.67
2023-06-01T03:37:13.230Z,3.30
2023-06-01T03:39:40.352Z,3.65
2023-06-01T03:42:08.379Z,3.20
2023-06-01T03:44:35.068Z,3.78
2023-06-01T03:47:02.022Z,3.30
2023-06-01T03:49:28.649Z,3.55
2023-06-01T03:51:55.394Z,2.95
2023-06-01T03:54:22.121Z,3.03
2023-06-01T03:56:48.842Z,3.50
2023-06-01T03:59:16.109Z,3.00
2023-06-01T04:01:44.248Z,3.42
2023-06-01T04:04:11.059Z,3.78
2023-06-01T04:06:37.909Z,3.25
2023-06-01T04:09:10.418Z,3.38
2023-06-01T04:11:37.102Z,3.15
2023-06-01T04:14:03.665Z,3.20
2023-06-01T04:16:30.332Z,3.55
2023-06-01T04:18:57.026Z,3.58
2023-06-01T04:21:24.443Z,3.25
2023-06-01T04:23:51.660Z,2.80
2023-06-01T04:26:19.233Z,3.30
2023-06-01T04:28:46.992Z,3.15
2023-06-01T04:31:20.806Z,3.50
2023-06-01T04:33:53.285Z,3.28
2023-06-01T04:36:26.523Z,3.17
2023-06-01T04:38:55.309Z,3.20
2023-06-01T04:41:23.048Z,3.78
2023-06-01T04:43:54.097Z,3.17
2023-06-01T04:46:24.326Z,3.25
2023-06-01T04:48:54.550Z,3.38
2023-06-01T04:51:21.818Z,3.40
2023-06-01T04:53:53.122Z,3.88
2023-06-01T04:56:20.735Z,3.63
2023-06-01T04:58:48.364Z,3.92
2023-06-01T05:01:16.624Z,3.63
2023-06-01T05:03:45.013Z,3.33
2023-06-01T05:06:12.997Z,3.55
2023-06-01T05:08:43.230Z,3.85
2023-06-01T05:11:10.847Z,3.70
2023-06-01T05:13:41.996Z,3.70
2023-06-01T05:16:09.735Z,3.42
2023-06-01T05:18:36.738Z,3.58
2023-06-01T05:21:03.741Z,3.78
2023-06-01T05:23:31.022Z,4.10
2023-06-01T05:26:03.338Z,3.67
2023-06-01T05:28:33.757Z,3.72
2023-06-01T05:31:02.362Z,3.60
2023-06-01T05:33:29.109Z,3.90
2023-06-01T05:35:55.875Z,4.28
2023-06-01T05:38:22.461Z,3.90
2023-06-01T05:40:49.186Z,4.10
2023-06-01T05:43:16.905Z,3.92
2023-06-01T05:45:43.693Z,3.88
2023-06-01T05:48:10.414Z,4.18
2023-06-01T05:50:37.028Z,4.32
2023-06-01T05:53:03.690Z,3.90
2023-06-01T05:55:30.218Z,4.20
2023-06-01T05:57:56.765Z,4.38
2023-06-01T06:00:23.424Z,3.78
2023-06-01T06:02:50.380Z,4.22
2023-06-01T06:05:17.225Z,4.40
2023-06-01T06:07:43.870Z,4.25
2023-06-01T06:10:10.898Z,4.03
2023-06-01T06:12:37.555Z,4.15
2023-06-01T06:15:05.277Z,3.65
2023-06-01T06:17:31.894Z,4.18
2023-06-01T06:19:58.629Z,4.40
2023-06-01T06:22:25.204Z,4.13
2023-06-01T06:24:51.890Z,4.70
2023-06-01T06:27:18.476Z,4.40
2023-06-01T06:29:45.133Z,4.70
2023-06-01T06:32:11.841Z,4.70
2023-06-01T06:34:38.409Z,4.50
2023-06-01T06:37:07.865Z,4.78
2023-06-01T06:39:35.161Z,4.53
2023-06-01T06:42:04.911Z,4.38
2023-06-01T06:44:31.716Z,4.85
2023-06-01T06:47:02.354Z,4.60
2023-06-01T06:49:29.670Z,4.43
2023-06-01T06:51:56.965Z,4.20
2023-06-01T06:54:23.885Z,4.70
2023-06-01T06:56:50.731Z,4.40
2023-06-01T06:59:18.122Z,4.93
2023-06-01T07:01:44.789Z,4.63
2023-06-01T07:04:11.529Z,5.10
2023-06-01T07:06:38.520Z,5.20
2023-06-01T07:09:06.850Z,5.55
2023-06-01T07:11:33.525Z,4.55
2023-06-01T07:14:00.354Z,4.97
2023-06-01T07:16:27.939Z,4.50
2023-06-01T07:18:54.590Z,4.72
2023-06-01T07:21:21.209Z,4.85
2023-06-01T07:23:48.046Z,4.72
2023-06-01T07:26:14.645Z,4.70
2023-06-01T07:28:43.596Z,4.65
2023-06-01T07:31:10.487Z,5.32
2023-06-01T07:33:37.462Z,5.03
2023-06-01T07:36:05.492Z,5.13
2023-06-01T07:38:32.362Z,5.25
2023-06-01T07:40:59.077Z,4.93
2023-06-01T07:43:25.852Z,4.65
2023-06-01T07:45:52.449Z,5.72
2023-06-01T07:48:19.035Z,5.15
2023-06-01T07:50:45.682Z,5.28
2023-06-01T07:53:13.283Z,5.07
2023-06-01T07:55:40.022Z,5.25
2023-06-01T07:58:06.930Z,4.57
2023-06-01T08:00:33.520Z,5.07
2023-06-01T08:03:00.448Z,4.45
2023-06-01T08:05:27.235Z,5.20
2023-06-01T08:07:54.160Z,5.00
2023-06-01T08:10:20.749Z,4.68
2023-06-01T08:12:49.087Z,5.75
2023-06-01T08:15:17.078Z,4.65
2023-06-01T08:17:44.441Z,4.63
2023-06-01T08:20:12.328Z,5.15
2023-06-01T08:22:39.276Z,4.63
2023-06-01T08:25:06.800Z,5.07
2023-06-01T08:27:33.489Z,5.00
2023-06-01T08:30:00.084Z,4.95
2023-06-01T08:32:26.803Z,5.13
2023-06-01T08:34:53.430Z,4.50
2023-06-01T08:37:20.016Z,5.00
2023-06-01T08:39:47.379Z,4.80
2023-06-01T08:42:26.715Z,4.80
2023-06-01T08:44:59.351Z,4.95
2023-06-01T08:47:27.539Z,4.57
2023-06-01T08:49:54.562Z,4.50
2023-06-01T08:52:25.783Z,6.07
2023-06-01T08:54:53.584Z,5.65
2023-06-01T08:57:21.603Z,5.22
2023-06-01T08:59:48.263Z,4.70
2023-06-01T09:02:15.821Z,4.80
2023-06-01T09:04:45.652Z,5.25
2023-06-01T09:07:14.057Z,4.38
2023-06-01T09:09:41.064Z,4.45
2023-06-01T09:12:25.518Z,4.65
2023-06-01T09:15:12.926Z,4.65
2023-06-01T09:17:44.353Z,4.63
2023-06-01T09:20:15.482Z,4.68
2023-06-01T09:22:46.532Z,5.35
2023-06-01T09:25:14.974Z,4.45
2023-06-01T09:27:52.361Z,4.65
2023-06-01T09:30:24.849Z,4.30
2023-06-01T09:32:53.917Z,4.40
2023-06-01T09:35:46.718Z,4.20
2023-06-01T09:38:22.202Z,4.30
2023-06-01T09:41:04.830Z,4.57
2023-06-01T09:43:37.658Z,4.75
2023-06-01T09:46:04.996Z,4.80
2023-06-01T09:48:31.840Z,4.20
2023-06-01T09:50:59.732Z,5.03
2023-06-01T09:53:28.300Z,4.75
2023-06-01T09:56:02.080Z,5.13
2023-06-01T09:58:29.162Z,5.10
2023-06-01T10:00:59.517Z,5.90
2023-06-01T10:03:27.191Z,5.13
2023-06-01T10:05:54.775Z,5.85
2023-06-01T10:08:21.662Z,6.35
2023-06-01T10:10:49.999Z,6.55
2023-06-01T10:13:16.922Z,7.55
2023-06-01T10:15:43.595Z,7.88
2023-06-01T10:18:10.686Z,8.02
2023-06-01T10:20:39.236Z,7.10
2023-06-01T10:23:09.247Z,7.70
2023-06-01T10:25:47.055Z,7.50
2023-06-01T10:28:14.609Z,7.57
2023-06-01T10:30:41.403Z,8.98
2023-06-01T10:33:08.233Z,7.50
2023-06-01T10:35:43.928Z,7.35
2023-06-01T10:38:10.968Z,8.27
2023-06-01T10:40:38.586Z,9.13
2023-06-01T10:43:05.374Z,8.95
2023-06-01T10:45:34.645Z,8.38
2023-06-01T10:48:02.621Z,8.90
2023-06-01T10:50:29.264Z,8.10
2023-06-01T10:52:56.976Z,9.25
2023-06-01T10:55:28.038Z,8.95
2023-06-01T10:58:25.191Z,8.45
2023-06-01T11:00:56.529Z,8.38
2023-06-01T11:03:46.558Z,8.13
2023-06-01T11:06:27.452Z,8.60
2023-06-01T11:09:01.003Z,8.25
2023-06-01T11:11:49.864Z,7.93
2023-06-01T11:14:17.239Z,7.15
2023-06-01T11:16:44.106Z,7.80
2023-06-01T11:19:11.858Z,7.57
2023-06-01T11:21:44.477Z,7.35
2023-06-01T11:24:12.430Z,7.53
2023-06-01T11:26:47.154Z,7.10
2023-06-01T11:29:24.499Z,6.68
2023-06-01T11:31:54.929Z,6.82
2023-06-01T11:34:35.124Z,6.43
2023-06-01T11:37:03.175Z,5.90
2023-06-01T11:39:30.776Z,6.38
2023-06-01T11:42:11.705Z,6.20
2023-06-01T11:44:41.027Z,6.10
2023-06-01T11:47:09.287Z,5.70
2023-06-01T11:49:50.569Z,5.68
2023-06-01T11:52:19.029Z,5.00
2023-06-01T11:54:46.545Z,5.22
2023-06-01T11:57:13.458Z,5.22
2023-06-01T11:59:50.731Z,5.32
2023-06-01T12:02:25.872Z,4.80
2023-06-01T12:05:07.955Z,5.28
2023-06-01T12:07:55.213Z,5.32
2023-06-01T12:10:22.777Z,4.85
2023-06-01T12:12:49.708Z,4.93
2023-06-01T12:15:17.561Z,4.63
2023-06-01T12:17:48.459Z,4.07
2023-06-01T12:20:29.124Z,4.43
2023-06-01T12:22:56.561Z,4.38
2023-06-01T12:25:26.607Z,4.25
2023-06-01T12:28:06.733Z,4.53
2023-06-01T12:30:34.198Z,4.20
2023-06-01T12:33:01.479Z,3.95
2023-06-01T12:35:28.155Z,3.63
2023-06-01T12:38:12.818Z,4.00
2023-06-01T12:40:40.162Z,3.50
2023-06-01T12:43:18.999Z,3.40
2023-06-01T12:45:46.086Z,4.13
2023-06-01T12:48:35.583Z,4.93
2023-06-01T12:51:02.935Z,3.60
2023-06-01T12:53:30.653Z,3.83
2023-06-01T12:55:57.641Z,3.42
2023-06-01T12:58:24.320Z,3.40
2023-06-01T13:00:57.226Z,3.42
2023-06-01T13:05:52.828Z,3.47
2023-06-01T13:08:20.128Z,4.00
2023-06-01T13:10:47.626Z,3.25
2023-06-01T13:13:14.271Z,3.25
2023-06-01T13:15:41.725Z,3.38
2023-06-01T13:18:08.545Z,3.20
2023-06-01T13:20:36.317Z,3.30
2023-06-01T13:23:05.050Z,3.40
2023-06-01T13:25:31.916Z,3.25
2023-06-01T13:27:58.985Z,3.90
2023-06-01T13:30:25.593Z,3.05
2023-06-01T13:32:52.274Z,2.85
2023-06-01T13:35:19.969Z,3.05
2023-06-01T13:37:46.540Z,2.88
2023-06-01T13:40:13.674Z,3.00
2023-06-01T13:42:40.294Z,2.75
2023-06-01T13:45:07.519Z,2.97
2023-06-01T13:47:34.108Z,2.90
2023-06-01T13:50:00.724Z,2.90
2023-06-01T13:52:27.982Z,2.83
2023-06-01T13:54:54.584Z,2.70
2023-06-01T13:57:21.139Z,2.47
2023-06-01T13:59:47.747Z,2.83
2023-06-01T14:02:14.702Z,2.47
2023-06-01T14:04:41.404Z,2.97
2023-06-01T14:07:07.978Z,2.88
2023-06-01T14:09:34.567Z,1.92
2023-06-01T14:12:01.207Z,2.40
2023-06-01T14:14:27.819Z,2.45
2023-06-01T14:16:54.366Z,2.78
2023-06-01T14:19:21.036Z,2.53
2023-06-01T14:21:47.645Z,1.92
2023-06-01T14:24:14.301Z,2.55
2023-06-01T14:26:41.086Z,2.63
2023-06-01T14:29:07.654Z,2.65
2023-06-01T14:31:34.250Z,2.40
2023-06-01T14:34:00.855Z,3.50
2023-06-01T14:36:45.058Z,2.15
2023-06-01T14:39:13.108Z,2.13
2023-06-01T14:41:43.491Z,2.10
2023-06-01T14:44:11.569Z,2.58
2023-06-01T14:46:38.417Z,2.65
2023-06-01T14:49:05.275Z,3.03
2023-06-01T14:51:34.221Z,3.97
2023-06-01T14:54:01.128Z,3.97
2023-06-01T14:56:28.182Z,4.47
2023-06-01T14:58:54.987Z,4.53
2023-06-01T15:01:21.791Z,4.82
2023-06-01T15:03:48.709Z,5.30
2023-06-01T15:06:15.612Z,5.07
2023-06-01T15:08:42.237Z,6.07
2023-06-01T15:11:08.886Z,5.68
2023-06-01T15:13:35.747Z,6.70
2023-06-01T15:16:02.427Z,6.90
2023-06-01T15:18:28.965Z,6.82
2023-06-01T15:20:55.862Z,6.75
2023-06-01T15:23:22.434Z,7.68
2023-06-01T15:25:49.022Z,8.45
2023-06-01T15:28:15.610Z,8.23
2023-06-01T15:30:42.179Z,8.13
2023-06-01T15:34:13.121Z,9.93
2023-06-01T15:35:55.268Z,9.13
2023-06-01T15:38:21.874Z,9.57
2023-06-01T15:40:48.764Z,9.52
2023-06-01T15:43:15.508Z,9.93
2023-06-01T15:45:42.095Z,10.40
2023-06-01T15:48:08.757Z,9.80
2023-06-01T15:50:40.053Z,10.75
2023-06-01T15:53:07.218Z,10.77
2023-06-01T15:55:33.803Z,9.80
2023-06-01T15:58:00.473Z,10.82
2023-06-01T16:00:28.831Z,11.13
2023-06-01T16:02:55.544Z,10.52
2023-06-01T16:05:22.268Z,10.93
2023-06-01T16:07:48.864Z,10.48
2023-06-01T16:10:16.128Z,9.70
2023-06-01T16:12:42.761Z,11.13
2023-06-01T16:15:09.621Z,9.77
2023-06-01T16:17:36.316Z,10.63
2023-06-01T16:20:03.342Z,10.93
2023-06-01T16:22:29.919Z,10.63
2023-06-01T16:24:56.499Z,9.77
2023-06-01T16:27:23.072Z,10.70
2023-06-01T16:29:49.728Z,9.73
2023-06-01T16:32:16.380Z,10.80
2023-06-01T16:34:42.972Z,10.82
2023-06-01T16:37:09.530Z,10.23
2023-06-01T16:39:36.259Z,10.27
2023-06-01T16:42:02.932Z,10.27
2023-06-01T16:44:29.490Z,10.32
2023-06-01T16:46:56.073Z,9.02
2023-06-01T16:49:22.680Z,9.60
2023-06-01T16:51:49.902Z,9.95
2023-06-01T16:54:16.539Z,10.40
2023-06-01T16:56:43.084Z,8.95
2023-06-01T16:59:09.678Z,9.23
2023-06-01T17:01:36.944Z,8.57
2023-06-01T17:04:03.713Z,8.60
2023-06-01T17:06:32.031Z,8.60
2023-06-01T17:08:59.209Z,8.93
2023-06-01T17:11:28.380Z,8.77
2023-06-01T17:13:55.081Z,9.00
2023-06-01T17:16:21.772Z,8.80
2023-06-01T17:18:48.538Z,8.98
2023-06-01T17:21:15.786Z,10.52
2023-06-01T17:23:43.552Z,9.93
2023-06-01T17:26:10.165Z,9.70
2023-06-01T17:28:37.659Z,11.00
2023-06-01T17:31:04.552Z,10.75
2023-06-01T17:33:31.466Z,12.10
2023-06-01T17:35:58.131Z,10.68
2023-06-01T17:38:25.536Z,10.07
2023-06-01T17:40:52.617Z,10.95
2023-06-01T17:43:19.175Z,12.35
2023-06-01T17:45:45.981Z,11.45
2023-06-01T17:48:12.728Z,11.00
2023-06-01T17:50:39.514Z,11.00
2023-06-01T17:53:08.138Z,11.60
2023-06-01T17:55:37.402Z,12.35
2023-06-01T17:58:04.015Z,12.27
2023-06-01T18:00:32.646Z,12.55
2023-06-01T18:02:59.272Z,13.70
2023-06-01T18:05:25.912Z,14.35
2023-06-01T18:07:52.508Z,15.05
2023-06-01T18:10:19.477Z,18.17
2023-06-01T18:12:46.250Z,19.67
2023-06-01T18:15:12.968Z,22.45
2023-06-01T18:17:39.658Z,25.67
2023-06-01T18:20:06.757Z,26.70
2023-06-01T18:22:33.388Z,27.40
2023-06-01T18:24:59.992Z,28.77
2023-06-01T18:27:26.799Z,29.50
2023-06-01T18:29:53.627Z,30.52
2023-06-01T18:32:20.220Z,34.92
2023-06-01T18:34:46.772Z,32.22
2023-06-01T18:37:13.380Z,32.15
2023-06-01T18:39:39.992Z,33.42
2023-06-01T18:42:06.899Z,31.13
2023-06-01T18:44:33.530Z,33.97
2023-06-01T18:47:00.280Z,32.88
2023-06-01T18:49:27.022Z,33.60
2023-06-01T18:51:56.404Z,34.13
2023-06-01T18:54:23.118Z,30.75
2023-06-01T18:56:49.780Z,31.60
2023-06-01T18:59:16.585Z,31.58
2023-06-01T19:01:43.474Z,30.58
2023-06-01T19:04:10.132Z,31.55
2023-06-01T19:06:37.480Z,32.08
2023-06-01T19:09:04.285Z,31.77
2023-06-01T19:11:31.245Z,31.13
2023-06-01T19:13:57.836Z,31.58
2023-06-01T19:16:31.617Z,29.23
2023-06-01T19:19:01.000Z,30.83
2023-06-01T19:21:31.791Z,31.58
2023-06-01T19:23:59.449Z,30.40
2023-06-01T19:26:29.531Z,31.17
2023-06-01T19:29:01.676Z,29.73
2023-06-01T19:31:35.544Z,28.95
2023-06-01T19:34:04.192Z,28.35
2023-06-01T19:36:42.588Z,27.17
2023-06-01T19:39:36.331Z,27.40
2023-06-01T19:42:09.493Z,26.83
2023-06-01T19:44:36.638Z,24.60
2023-06-01T19:47:04.639Z,28.00
2023-06-01T19:49:41.751Z,26.08
2023-06-01T19:52:10.936Z,25.90
2023-06-01T19:54:39.892Z,24.88
2023-06-01T19:57:07.496Z,24.77
2023-06-01T19:59:34.658Z,24.88
2023-06-01T20:02:02.943Z,25.10
2023-06-01T20:04:34.018Z,23.58
2023-06-01T20:07:01.293Z,25.05
2023-06-01T20:09:27.997Z,25.83
2023-06-01T20:11:58.547Z,24.95
2023-06-01T20:14:33.429Z,24.48
2023-06-01T20:17:03.053Z,25.80
2023-06-01T20:19:30.416Z,26.10
2023-06-01T20:21:59.410Z,26.23
2023-06-01T20:24:30.970Z,25.35
2023-06-01T20:27:05.272Z,28.50
2023-06-01T20:29:33.951Z,27.88
2023-06-01T20:32:02.106Z,30.25
2023-06-01T20:34:31.429Z,30.10
2023-06-01T20:36:58.301Z,28.77
2023-06-01T20:39:25.343Z,30.88
2023-06-01T20:41:56.058Z,28.70
2023-06-01T20:44:23.710Z,30.35
2023-06-01T20:46:52.277Z,29.08
2023-06-01T20:49:24.858Z,28.85
2023-06-01T20:51:51.543Z,26.42
2023-06-01T20:54:22.931Z,30.83
2023-06-01T20:56:54.143Z,29.33
2023-06-01T20:59:28.641Z,29.65
2023-06-01T21:02:00.962Z,28.73
2023-06-01T21:04:30.263Z,28.27
2023-06-01T21:06:57.116Z,28.63
2023-06-01T21:09:24.287Z,28.90
2023-06-01T21:11:53.224Z,31.08
2023-06-01T21:14:20.509Z,29.73
2023-06-01T21:16:47.952Z,28.02
2023-06-01T21:19:14.723Z,29.60
2023-06-01T21:21:41.441Z,28.48
2023-06-01T21:24:08.952Z,27.70
2023-06-01T21:26:36.823Z,29.52
2023-06-01T21:29:04.111Z,27.95
2023-06-01T21:31:30.848Z,28.30
2023-06-01T21:33:57.526Z,29.10
2023-06-01T21:36:24.131Z,27.20
2023-06-01T21:38:50.864Z,28.02
2023-06-01T21:41:18.443Z,26.92
2023-06-01T21:43:45.108Z,27.02
2023-06-01T21:46:11.729Z,26.08
2023-06-01T21:48:38.395Z,25.80
2023-06-01T21:51:05.208Z,25.42
2023-06-01T21:53:31.862Z,25.40
2023-06-01T21:55:59.395Z,24.65
2023-06-01T21:58:26.741Z,23.95
2023-06-01T22:00:54.151Z,24.15
2023-06-01T22:03:22.474Z,24.85
2023-06-01T22:05:50.211Z,22.83
2023-06-01T22:08:17.293Z,23.27
2023-06-01T22:10:44.058Z,23.05
2023-06-01T22:13:10.793Z,22.50
2023-06-01T22:15:37.497Z,23.30
2023-06-01T22:18:06.289Z,23.10
2023-06-01T22:20:32.995Z,22.92
2023-06-01T22:22:59.585Z,22.38
2023-06-01T22:25:26.166Z,21.95
2023-06-01T22:27:52.787Z,20.67
2023-06-01T22:30:19.543Z,21.65
2023-06-01T22:32:46.237Z,21.08
2023-06-01T22:35:12.988Z,20.17
2023-06-01T22:37:39.592Z,20.90
2023-06-01T22:40:07.109Z,20.95
2023-06-01T22:42:34.918Z,19.60
2023-06-01T22:45:02.324Z,19.60
2023-06-01T22:47:29.085Z,20.30
2023-06-01T22:49:57.793Z,19.70
2023-06-01T22:52:28.555Z,18.73
2023-06-01T22:54:56.255Z,18.42
2023-06-01T22:57:23.491Z,18.85
2023-06-01T22:59:50.517Z,17.98
2023-06-01T23:02:19.764Z,18.58
2023-06-01T23:04:46.484Z,18.67
2023-06-01T23:07:14.398Z,18.55
2023-06-01T23:09:42.233Z,17.30
2023-06-01T23:12:12.781Z,17.42
2023-06-01T23:14:41.991Z,16.50
2023-06-01T23:17:12.432Z,15.88
2023-06-01T23:19:41.890Z,16.30
2023-06-01T23:22:09.637Z,16.13
2023-06-01T23:24:36.320Z,16.70
2023-06-01T23:27:03.135Z,15.65
2023-06-01T23:29:30.039Z,15.32
2023-06-01T23:31:56.875Z,14.88
2023-06-01T23:34:24.034Z,14.57
2023-06-01T23:36:54.168Z,15.88
2023-06-01T23:39:22.436Z,16.05
2023-06-01T23:41:49.755Z,15.10
2023-06-01T23:44:17.565Z,15.80
2023-06-01T23:46:46.133Z,14.77
2023-06-01T23:49:13.920Z,14.43
2023-06-01T23:51:41.168Z,13.15
2023-06-01T23:54:07.925Z,13.93
2023-06-01T23:56:34.683Z,13.82
2023-06-01T23:59:01.633Z,13.48
